Etusivu
METAR-TAF:

METAR-TAF

Lentoasemat :

Cayo Largo del Sur, Kuuba

Leveyspiiri: 21-37N, Pituuspiiri: 081-33W, korkeus merenpinnasta: 2 m

Tämänhetkinen sää

Tämä raportti tehtiin 1 tunti ja 19 minuuttia sitten, kello 13.05 UTC
Tuuli 6 kn idästä, vaihdellen koillisen ja idän/kaakon välillä
Lämpötila 25°C
Kosteus 79%
Ilmanpaine 1018 hPa

METAR: MUCL 041305Z AUTO 08006KT 040V120 25/21 Q1018

Aika: 09:24 (14:24 UTC)

Sääennuste

Tämä raportti tehtiin 3 tuntia ja 24 minuuttia sitten, kello 11.00 UTC
Ennuste voimassa 04. päivästä klo 12 UTC - 04. päivään klo 24 UTC
Tuuli 12 kn idästä
Näkyvyys: 9000 m
Hajanaisia pilviä 2000 ft:n korkeudessa

TAF: MUCL 041100Z 0412/0424 08012KT 9000 SCT020

Säähavainnot ja -ennusteet yli 4000 lentoasemalta (METAR- ja TAF-raportit).

Käytössä olevat sääasemat on merkitty karttaan keltaisilla ja punaisilla pisteillä.

Aseta hiiri pisteen päälle nähdäksesi sääaseman nimen.

Klikkaa sitten nähdäksesi säähavainnot ja -ennusteet.

Kartan vaihtaminen: klikkaa mustalla rastilla varustettuja vihreitä pisteitä, niin voit zoomata sisään; viivalla varustettua vihreää pistettä, niin voit zoomata ulos tai vihreitä nuolia, niin pääset viereisille kartoille.


METAR-TAF: